createdAt,value
2023-02-21T00:01:00.135Z,4.54
2023-02-21T00:03:45.666Z,4.41
2023-02-21T00:06:31.069Z,4.42
2023-02-21T00:09:16.620Z,4.44
2023-02-21T00:12:02.625Z,4.05
2023-02-21T00:14:48.058Z,4.19
2023-02-21T00:17:35.930Z,4.08
2023-02-21T00:20:21.398Z,4.06
2023-02-21T00:23:07.399Z,4.02
2023-02-21T00:25:53.209Z,4.13
2023-02-21T00:28:38.473Z,4.06
2023-02-21T00:31:24.609Z,3.94
2023-02-21T00:34:10.403Z,3.94
2023-02-21T00:36:55.970Z,4.10
2023-02-21T00:39:42.905Z,4.11
2023-02-21T00:42:28.478Z,4.22
2023-02-21T00:45:14.165Z,4.01
2023-02-21T00:47:59.915Z,3.80
2023-02-21T00:50:45.348Z,3.71
2023-02-21T00:53:31.049Z,3.62
2023-02-21T00:56:16.761Z,3.69
2023-02-21T00:59:02.685Z,3.53
2023-02-21T01:01:48.854Z,3.56
2023-02-21T01:04:36.038Z,3.53
2023-02-21T01:07:21.425Z,3.21
2023-02-21T01:10:06.839Z,3.41
2023-02-21T01:12:52.273Z,3.37
2023-02-21T01:15:37.787Z,3.43
2023-02-21T01:18:23.762Z,3.48
2023-02-21T01:21:09.177Z,3.49
2023-02-21T01:23:54.637Z,3.53
2023-02-21T01:26:40.163Z,3.37
2023-02-21T01:29:25.881Z,3.39
2023-02-21T01:32:11.878Z,3.44
2023-02-21T01:34:58.352Z,3.38
2023-02-21T01:37:43.979Z,3.34
2023-02-21T01:40:33.923Z,3.41
2023-02-21T01:43:20.953Z,3.46
2023-02-21T01:46:08.918Z,3.41
2023-02-21T01:48:55.460Z,3.31
2023-02-21T01:51:46.448Z,3.26
2023-02-21T01:54:32.556Z,3.34
2023-02-21T01:57:21.173Z,3.17
2023-02-21T02:00:08.314Z,2.92
2023-02-21T02:03:05.471Z,2.76
2023-02-21T02:05:51.853Z,2.65
2023-02-21T02:08:42.040Z,2.84
2023-02-21T02:11:50.920Z,2.66
2023-02-21T02:14:20.751Z,2.69
2023-02-21T02:17:03.376Z,2.66
2023-02-21T02:20:01.165Z,2.66
2023-02-21T02:22:40.098Z,2.59
2023-02-21T02:25:47.098Z,2.71
2023-02-21T02:28:43.033Z,2.62
2023-02-21T02:31:38.858Z,2.55
2023-02-21T02:34:34.663Z,2.72
2023-02-21T02:37:39.087Z,2.74
2023-02-21T02:40:41.392Z,2.55
2023-02-21T02:43:17.416Z,2.48
2023-02-21T02:45:52.134Z,2.53
2023-02-21T02:48:56.171Z,2.46
2023-02-21T02:51:23.495Z,2.36
2023-02-21T02:53:50.767Z,2.33
2023-02-21T02:56:18.005Z,2.50
2023-02-21T02:58:58.366Z,2.42
2023-02-21T03:01:43.431Z,2.35
2023-02-21T03:04:42.648Z,2.18
2023-02-21T03:07:36.543Z,2.17
2023-02-21T03:10:19.451Z,2.17
2023-02-21T03:13:03.358Z,2.16
2023-02-21T03:15:40.669Z,2.17
2023-02-21T03:18:16.913Z,2.22
2023-02-21T03:20:47.230Z,2.32
2023-02-21T03:23:18.418Z,2.46
2023-02-21T03:25:47.380Z,2.58
2023-02-21T03:28:15.109Z,2.57
2023-02-21T03:30:46.895Z,2.31
2023-02-21T03:33:13.932Z,2.17
2023-02-21T03:35:41.769Z,1.95
2023-02-21T03:38:10.827Z,1.99
2023-02-21T03:40:38.066Z,1.94
2023-02-21T03:43:09.594Z,1.97
2023-02-21T03:45:50.419Z,1.43
2023-02-21T03:48:31.083Z,1.29
2023-02-21T03:51:04.749Z,1.31
2023-02-21T03:53:36.120Z,1.27
2023-02-21T03:56:04.528Z,1.34
2023-02-21T03:58:47.452Z,1.43
2023-02-21T04:01:16.058Z,1.55
2023-02-21T04:03:43.405Z,1.67
2023-02-21T04:06:10.442Z,1.55
2023-02-21T04:08:37.871Z,1.55
2023-02-21T04:11:05.075Z,1.55
2023-02-21T04:13:34.664Z,1.52
2023-02-21T04:16:02.976Z,1.61
2023-02-21T04:18:31.366Z,1.52
2023-02-21T04:21:00.724Z,1.76
2023-02-21T04:23:27.769Z,1.87
2023-02-21T04:25:55.179Z,2.02
2023-02-21T04:28:27.861Z,2.03
2023-02-21T04:30:54.875Z,1.94
2023-02-21T04:33:22.777Z,2.05
2023-02-21T04:35:51.159Z,1.95
2023-02-21T04:38:39.812Z,1.96
2023-02-21T04:41:07.177Z,2.00
2023-02-21T04:43:34.894Z,2.14
2023-02-21T04:46:02.026Z,1.98
2023-02-21T04:48:29.436Z,1.81
2023-02-21T04:51:01.536Z,1.61
2023-02-21T04:53:33.908Z,1.03
2023-02-21T04:56:00.929Z,1.12
2023-02-21T04:58:31.193Z,1.13
2023-02-21T05:01:03.501Z,1.12
2023-02-21T05:03:30.618Z,1.16
2023-02-21T05:05:57.725Z,1.26
2023-02-21T05:08:27.912Z,1.41
2023-02-21T05:10:55.885Z,1.39
2023-02-21T05:13:23.169Z,1.58
2023-02-21T05:15:50.454Z,1.40
2023-02-21T05:18:22.871Z,1.57
2023-02-21T05:20:50.556Z,1.40
2023-02-21T05:23:19.300Z,1.31
2023-02-21T05:25:46.297Z,1.29
2023-02-21T05:28:13.490Z,1.25
2023-02-21T05:30:40.686Z,1.28
2023-02-21T05:33:07.857Z,1.29
2023-02-21T05:35:34.850Z,1.30
2023-02-21T05:38:01.885Z,1.36
2023-02-21T05:40:28.840Z,1.49
2023-02-21T05:42:55.968Z,1.46
2023-02-21T05:45:22.940Z,1.51
2023-02-21T05:47:49.949Z,1.37
2023-02-21T05:50:17.091Z,1.35
2023-02-21T05:52:44.117Z,1.59
2023-02-21T05:55:11.889Z,1.40
2023-02-21T05:57:39.885Z,1.39
2023-02-21T06:00:07.580Z,1.32
2023-02-21T06:02:39.124Z,1.36
2023-02-21T06:05:06.877Z,1.29
2023-02-21T06:07:33.897Z,1.22
2023-02-21T06:10:01.686Z,1.18
2023-02-21T06:12:28.666Z,1.23
2023-02-21T06:14:56.018Z,1.33
2023-02-21T06:17:23.630Z,1.42
2023-02-21T06:19:50.865Z,1.62
2023-02-21T06:22:17.876Z,1.58
2023-02-21T06:24:45.720Z,1.56
2023-02-21T06:27:12.726Z,1.63
2023-02-21T06:29:39.972Z,1.77
2023-02-21T06:32:07.206Z,1.81
2023-02-21T06:34:34.595Z,1.89
2023-02-21T06:37:01.816Z,1.97
2023-02-21T06:39:29.630Z,1.97
2023-02-21T06:41:56.639Z,2.06
2023-02-21T06:44:23.946Z,2.26
2023-02-21T06:46:51.169Z,2.46
2023-02-21T06:49:18.568Z,2.75
2023-02-21T06:51:45.613Z,3.07
2023-02-21T06:54:13.988Z,3.15
2023-02-21T06:56:41.043Z,3.08
2023-02-21T06:59:09.105Z,3.15
2023-02-21T07:01:36.161Z,3.26
2023-02-21T07:04:03.406Z,3.23
2023-02-21T07:06:31.927Z,3.23
2023-02-21T07:09:02.441Z,3.61
2023-02-21T07:11:32.343Z,3.76
2023-02-21T07:13:59.673Z,4.16
2023-02-21T07:16:27.254Z,4.20
2023-02-21T07:18:54.563Z,4.32
2023-02-21T07:21:22.214Z,4.51
2023-02-21T07:23:52.392Z,4.51
2023-02-21T07:26:19.615Z,4.79
2023-02-21T07:28:50.012Z,4.95
2023-02-21T07:31:19.538Z,4.89
2023-02-21T07:33:47.104Z,4.55
2023-02-21T07:36:14.536Z,4.42
2023-02-21T07:38:41.492Z,4.48
2023-02-21T07:41:09.008Z,4.51
2023-02-21T07:43:36.052Z,4.78
2023-02-21T07:46:03.697Z,4.91
2023-02-21T07:48:30.866Z,5.05
2023-02-21T07:50:58.106Z,5.08
2023-02-21T07:53:25.258Z,5.14
2023-02-21T07:55:52.653Z,5.27
2023-02-21T07:58:21.367Z,5.47
2023-02-21T08:00:49.362Z,5.65
2023-02-21T08:03:16.352Z,5.83
2023-02-21T08:05:44.362Z,5.78
2023-02-21T08:08:11.636Z,5.87
2023-02-21T08:10:39.437Z,5.94
2023-02-21T08:13:06.639Z,5.83
2023-02-21T08:15:34.405Z,5.91
2023-02-21T08:18:01.588Z,5.97
2023-02-21T08:20:29.330Z,6.14
2023-02-21T08:22:56.529Z,6.29
2023-02-21T08:25:23.772Z,6.80
2023-02-21T08:27:53.869Z,7.10
2023-02-21T08:30:22.574Z,7.22
2023-02-21T08:32:51.447Z,7.13
2023-02-21T08:35:20.120Z,7.24
2023-02-21T08:37:48.994Z,7.21
2023-02-21T08:40:19.957Z,7.20
2023-02-21T08:42:52.890Z,7.36
2023-02-21T08:45:22.409Z,7.60
2023-02-21T08:47:50.039Z,7.74
2023-02-21T08:50:19.817Z,7.89
2023-02-21T08:52:48.183Z,7.75
2023-02-21T08:55:16.430Z,7.68
2023-02-21T08:57:43.696Z,8.04
2023-02-21T09:00:13.823Z,8.30
2023-02-21T09:02:40.875Z,8.46
2023-02-21T09:05:28.883Z,8.62
2023-02-21T09:08:02.194Z,8.79
2023-02-21T09:10:34.578Z,8.85
2023-02-21T09:13:02.762Z,9.07
2023-02-21T09:15:29.761Z,8.95
2023-02-21T09:17:57.349Z,8.95
2023-02-21T09:20:26.476Z,8.89
2023-02-21T09:22:54.602Z,9.39
2023-02-21T09:25:28.235Z,9.74
2023-02-21T09:27:55.913Z,9.77
2023-02-21T09:30:27.161Z,9.96
2023-02-21T09:32:55.471Z,9.99
2023-02-21T09:35:23.342Z,9.90
2023-02-21T09:37:50.438Z,10.20
2023-02-21T09:40:39.012Z,10.21
2023-02-21T09:43:12.284Z,10.30
2023-02-21T09:45:39.377Z,10.35
2023-02-21T09:48:21.773Z,10.25
2023-02-21T09:50:58.502Z,10.05
2023-02-21T09:53:32.376Z,9.88
2023-02-21T09:56:11.821Z,10.23
2023-02-21T09:58:44.342Z,10.45
2023-02-21T10:01:25.039Z,10.61
2023-02-21T10:04:15.427Z,10.82
2023-02-21T10:06:53.142Z,10.95
2023-02-21T10:09:45.115Z,10.88
2023-02-21T10:12:12.224Z,10.70
2023-02-21T10:15:00.693Z,10.75
2023-02-21T10:17:27.647Z,10.97
2023-02-21T10:20:03.064Z,10.86
2023-02-21T10:22:35.669Z,10.94
2023-02-21T10:25:37.112Z,11.08
2023-02-21T10:28:04.292Z,11.23
2023-02-21T10:30:35.700Z,11.24
2023-02-21T10:33:07.706Z,11.26
2023-02-21T10:35:36.362Z,11.38
2023-02-21T10:38:25.742Z,11.87
2023-02-21T10:41:03.986Z,12.13
2023-02-21T10:43:38.581Z,12.37
2023-02-21T10:46:31.621Z,12.68
2023-02-21T10:49:24.907Z,12.87
2023-02-21T10:52:13.666Z,13.35
2023-02-21T10:54:41.165Z,13.73
2023-02-21T10:57:13.527Z,13.93
2023-02-21T10:59:44.014Z,14.15
2023-02-21T11:02:42.217Z,14.51
2023-02-21T11:05:19.760Z,14.75
2023-02-21T11:08:35.181Z,14.83
2023-02-21T11:11:02.928Z,14.21
2023-02-21T11:13:31.110Z,14.21
2023-02-21T11:16:22.283Z,14.39
2023-02-21T11:19:06.051Z,14.85
2023-02-21T11:21:33.615Z,15.32
2023-02-21T11:24:04.650Z,15.58
2023-02-21T11:26:56.280Z,16.02
2023-02-21T11:29:27.374Z,16.41
2023-02-21T11:31:55.697Z,16.73
2023-02-21T11:34:30.132Z,16.87
2023-02-21T11:37:04.218Z,17.23
2023-02-21T11:39:34.874Z,17.38
2023-02-21T11:42:05.409Z,17.70
2023-02-21T11:44:35.906Z,18.03
2023-02-21T11:47:14.938Z,18.06
2023-02-21T11:49:51.159Z,18.34
2023-02-21T11:52:23.246Z,18.58
2023-02-21T11:54:53.394Z,18.75
2023-02-21T11:57:27.021Z,18.77
2023-02-21T12:00:16.192Z,19.00
2023-02-21T12:03:07.039Z,19.33
2023-02-21T12:06:19.032Z,19.82
2023-02-21T12:09:19.141Z,20.01
2023-02-21T12:12:14.345Z,20.15
2023-02-21T12:15:12.111Z,20.38
2023-02-21T12:18:00.437Z,20.61
2023-02-21T12:20:43.857Z,20.65
2023-02-21T12:23:31.944Z,21.00
2023-02-21T12:26:21.078Z,21.41
2023-02-21T12:29:15.612Z,21.68
2023-02-21T12:31:51.364Z,21.91
2023-02-21T12:34:45.380Z,22.11
2023-02-21T12:37:26.358Z,22.32
2023-02-21T12:40:30.480Z,22.50
2023-02-21T12:43:19.239Z,22.81
2023-02-21T12:46:18.714Z,23.00
2023-02-21T12:49:07.024Z,23.26
2023-02-21T12:51:41.349Z,23.53
2023-02-21T12:54:17.569Z,23.66
2023-02-21T12:56:58.838Z,24.09
2023-02-21T12:59:36.797Z,24.31
2023-02-21T13:02:13.898Z,24.16
2023-02-21T13:05:07.842Z,24.39
2023-02-21T13:07:42.755Z,24.37
2023-02-21T13:10:20.549Z,24.44
2023-02-21T13:13:02.008Z,24.80
2023-02-21T13:15:32.690Z,25.18
2023-02-21T13:18:15.130Z,25.23
2023-02-21T13:20:52.853Z,25.54
2023-02-21T13:23:57.298Z,25.76
2023-02-21T13:26:45.753Z,25.47
2023-02-21T13:29:23.023Z,25.56
2023-02-21T13:32:17.958Z,25.87
2023-02-21T13:34:53.037Z,26.08
2023-02-21T13:37:23.974Z,26.25
2023-02-21T13:40:23.619Z,26.32
2023-02-21T13:43:01.534Z,26.71
2023-02-21T13:45:33.020Z,26.75
2023-02-21T13:48:05.862Z,26.87
2023-02-21T13:50:38.632Z,26.96
2023-02-21T13:53:08.656Z,27.32
2023-02-21T13:55:37.359Z,27.70
2023-02-21T13:58:05.475Z,27.68
2023-02-21T14:00:32.663Z,27.65
2023-02-21T14:03:09.968Z,27.71
2023-02-21T14:05:52.683Z,27.67
2023-02-21T14:08:34.142Z,27.68
2023-02-21T14:11:07.406Z,27.88
2023-02-21T14:14:06.810Z,27.86
2023-02-21T14:16:46.422Z,27.96
2023-02-21T14:19:35.978Z,27.95
2023-02-21T14:22:10.856Z,28.03
2023-02-21T14:24:42.415Z,28.14
2023-02-21T14:27:12.958Z,28.02
2023-02-21T14:29:41.296Z,28.11
2023-02-21T14:32:08.459Z,28.26
2023-02-21T14:34:50.206Z,28.25
2023-02-21T14:37:19.832Z,28.28
2023-02-21T14:39:50.057Z,28.43
2023-02-21T14:42:35.605Z,28.52
2023-02-21T14:45:11.841Z,28.37
2023-02-21T14:48:15.801Z,28.36
2023-02-21T14:51:07.115Z,28.36
2023-02-21T14:54:10.890Z,28.27
2023-02-21T14:56:57.242Z,28.05
2023-02-21T14:59:51.913Z,28.13
2023-02-21T15:02:32.131Z,28.09
2023-02-21T15:05:33.473Z,28.07
2023-02-21T15:08:17.035Z,27.40
2023-02-21T15:10:47.198Z,27.09
2023-02-21T15:13:27.134Z,27.46
2023-02-21T15:15:58.738Z,27.60
2023-02-21T15:18:32.135Z,27.49
2023-02-21T15:21:14.503Z,27.64
2023-02-21T15:23:48.183Z,27.66
2023-02-21T15:26:22.180Z,27.60
2023-02-21T15:29:08.826Z,27.26
2023-02-21T15:31:57.444Z,27.20
2023-02-21T15:34:28.605Z,27.05
2023-02-21T15:37:03.119Z,26.54
2023-02-21T15:39:35.553Z,26.02
2023-02-21T15:42:07.036Z,25.52
2023-02-21T15:44:46.540Z,25.54
2023-02-21T15:47:16.051Z,25.52
2023-02-21T15:50:04.614Z,25.37
2023-02-21T15:52:51.720Z,25.23
2023-02-21T15:55:18.706Z,25.03
2023-02-21T15:58:24.986Z,24.59
2023-02-21T16:01:07.487Z,24.02
2023-02-21T16:03:36.468Z,23.24
2023-02-21T16:06:21.456Z,22.42
2023-02-21T16:08:51.491Z,21.81
2023-02-21T16:11:20.047Z,21.30
2023-02-21T16:13:47.700Z,20.81
2023-02-21T16:16:14.858Z,20.38
2023-02-21T16:18:42.121Z,19.91
2023-02-21T16:21:26.018Z,19.48
2023-02-21T16:23:53.438Z,19.11
2023-02-21T16:26:27.384Z,18.73
2023-02-21T16:28:58.711Z,18.39
2023-02-21T16:31:32.473Z,18.00
2023-02-21T16:33:59.916Z,17.65
2023-02-21T16:36:29.902Z,17.39
2023-02-21T16:38:58.520Z,17.10
2023-02-21T16:41:28.743Z,16.81
2023-02-21T16:43:55.713Z,16.59
2023-02-21T16:46:30.166Z,16.33
2023-02-21T16:48:59.106Z,16.12
2023-02-21T16:51:33.782Z,15.85
2023-02-21T16:54:01.733Z,15.59
2023-02-21T16:56:29.132Z,15.31
2023-02-21T16:58:57.282Z,14.94
2023-02-21T17:01:30.263Z,14.84
2023-02-21T17:03:57.521Z,14.61
2023-02-21T17:06:27.330Z,14.64
2023-02-21T17:08:54.698Z,14.48
2023-02-21T17:11:21.834Z,14.22
2023-02-21T17:13:48.854Z,14.08
2023-02-21T17:16:16.193Z,13.68
2023-02-21T17:18:46.313Z,13.47
2023-02-21T17:21:13.699Z,13.37
2023-02-21T17:23:41.966Z,13.19
2023-02-21T17:26:08.951Z,13.15
2023-02-21T17:28:39.174Z,13.06
2023-02-21T17:31:06.481Z,12.82
2023-02-21T17:33:35.725Z,12.54
2023-02-21T17:36:03.083Z,12.42
2023-02-21T17:38:30.686Z,12.34
2023-02-21T17:40:57.890Z,12.25
2023-02-21T17:43:25.430Z,12.13
2023-02-21T17:45:52.745Z,12.11
2023-02-21T17:48:20.148Z,12.06
2023-02-21T17:50:47.150Z,11.96
2023-02-21T17:53:14.439Z,11.88
2023-02-21T17:55:41.505Z,11.87
2023-02-21T17:58:09.962Z,11.88
2023-02-21T18:00:37.183Z,11.75
2023-02-21T18:03:06.954Z,11.49
2023-02-21T18:05:34.237Z,11.49
2023-02-21T18:08:01.379Z,11.38
2023-02-21T18:10:28.493Z,11.49
2023-02-21T18:12:56.208Z,11.60
2023-02-21T18:15:27.769Z,11.62
2023-02-21T18:17:55.183Z,11.60
2023-02-21T18:20:22.582Z,11.54
2023-02-21T18:22:49.744Z,11.53
2023-02-21T18:25:18.583Z,11.48
2023-02-21T18:27:45.807Z,11.48
2023-02-21T18:30:13.336Z,11.43
2023-02-21T18:32:41.029Z,11.37
2023-02-21T18:35:08.164Z,11.38
2023-02-21T18:37:35.984Z,11.33
2023-02-21T18:40:06.077Z,11.14
2023-02-21T18:42:33.515Z,11.12
2023-02-21T18:45:00.926Z,10.91
2023-02-21T18:47:28.540Z,10.82
2023-02-21T18:49:58.884Z,10.58
2023-02-21T18:52:26.661Z,10.58
2023-02-21T18:54:54.777Z,10.51
2023-02-21T18:57:23.382Z,10.52
2023-02-21T18:59:50.802Z,10.46
2023-02-21T19:02:19.194Z,10.40
2023-02-21T19:04:47.019Z,10.32
2023-02-21T19:07:21.433Z,10.20
2023-02-21T19:09:50.491Z,10.16
2023-02-21T19:12:17.761Z,10.01
2023-02-21T19:14:45.189Z,10.08
2023-02-21T19:17:12.346Z,9.98
2023-02-21T19:19:39.717Z,9.94
2023-02-21T19:22:07.482Z,9.87
2023-02-21T19:24:34.533Z,9.79
2023-02-21T19:27:02.678Z,9.78
2023-02-21T19:29:29.794Z,9.79
2023-02-21T19:31:57.475Z,9.84
2023-02-21T19:34:24.841Z,9.83
2023-02-21T19:36:52.031Z,9.82
2023-02-21T19:39:19.188Z,9.83
2023-02-21T19:41:47.889Z,9.83
2023-02-21T19:44:15.788Z,9.70
2023-02-21T19:46:43.596Z,9.63
2023-02-21T19:49:18.417Z,9.61
2023-02-21T19:51:49.488Z,9.67
2023-02-21T19:54:19.440Z,9.62
2023-02-21T19:56:47.355Z,9.62
2023-02-21T19:59:14.983Z,9.55
2023-02-21T20:01:42.719Z,9.50
2023-02-21T20:04:10.308Z,9.41
2023-02-21T20:06:38.064Z,9.37
2023-02-21T20:09:07.481Z,9.36
2023-02-21T20:11:35.915Z,9.11
2023-02-21T20:14:03.121Z,9.08
2023-02-21T20:16:30.384Z,9.04
2023-02-21T20:18:58.190Z,8.95
2023-02-21T20:21:28.136Z,8.98
2023-02-21T20:23:55.656Z,8.84
2023-02-21T20:26:25.767Z,8.73
2023-02-21T20:28:53.798Z,8.77
2023-02-21T20:31:26.585Z,8.76
2023-02-21T20:33:55.664Z,8.79
2023-02-21T20:36:31.484Z,8.77
2023-02-21T20:38:58.620Z,8.77
2023-02-21T20:41:31.257Z,8.70
2023-02-21T20:43:59.868Z,8.65
2023-02-21T20:46:27.857Z,8.65
2023-02-21T20:48:58.764Z,8.66
2023-02-21T20:51:35.209Z,8.60
2023-02-21T20:54:04.973Z,8.64
2023-02-21T20:56:37.293Z,8.72
2023-02-21T20:59:08.055Z,8.77
2023-02-21T21:01:37.877Z,8.91
2023-02-21T21:04:10.635Z,9.00
2023-02-21T21:06:37.878Z,9.01
2023-02-21T21:09:04.931Z,9.03
2023-02-21T21:11:32.999Z,9.05
2023-02-21T21:14:00.945Z,8.77
2023-02-21T21:16:28.280Z,8.72
2023-02-21T21:18:57.677Z,8.79
2023-02-21T21:21:32.524Z,8.61
2023-02-21T21:24:00.753Z,8.37
2023-02-21T21:26:28.346Z,8.24
2023-02-21T21:28:55.645Z,8.12
2023-02-21T21:31:23.856Z,7.98
2023-02-21T21:33:51.069Z,7.89
2023-02-21T21:36:19.758Z,7.93
2023-02-21T21:38:47.309Z,7.90
2023-02-21T21:41:15.385Z,7.94
2023-02-21T21:43:44.840Z,7.98
2023-02-21T21:46:13.875Z,7.92
2023-02-21T21:48:44.738Z,7.77
2023-02-21T21:51:14.465Z,7.80
2023-02-21T21:53:41.874Z,7.63
2023-02-21T21:56:11.495Z,7.67
2023-02-21T21:58:38.589Z,7.68
2023-02-21T22:01:05.813Z,7.62
2023-02-21T22:03:34.881Z,7.58
2023-02-21T22:06:02.080Z,7.47
2023-02-21T22:08:29.653Z,7.48
2023-02-21T22:11:00.397Z,7.47
2023-02-21T22:13:29.667Z,7.43
2023-02-21T22:15:56.822Z,7.35
2023-02-21T22:18:24.361Z,7.32
2023-02-21T22:20:51.376Z,7.27
2023-02-21T22:23:21.492Z,7.27
2023-02-21T22:25:49.109Z,7.25
2023-02-21T22:28:18.837Z,7.24
2023-02-21T22:30:46.498Z,7.26
2023-02-21T22:33:18.920Z,7.22
2023-02-21T22:35:47.476Z,7.05
2023-02-21T22:38:17.550Z,6.93
2023-02-21T22:40:45.062Z,6.85
2023-02-21T22:43:13.952Z,6.87
2023-02-21T22:45:44.528Z,6.75
2023-02-21T22:48:11.966Z,6.70
2023-02-21T22:50:39.928Z,6.83
2023-02-21T22:53:09.670Z,6.88
2023-02-21T22:55:39.748Z,6.81
2023-02-21T22:58:09.934Z,6.78
2023-02-21T23:00:38.244Z,6.73
2023-02-21T23:03:13.375Z,6.71
2023-02-21T23:05:49.693Z,6.70
2023-02-21T23:08:23.009Z,6.75
2023-02-21T23:10:51.794Z,6.58
2023-02-21T23:13:23.475Z,6.50
2023-02-21T23:15:51.479Z,6.46
2023-02-21T23:18:23.528Z,6.34
2023-02-21T23:20:55.719Z,6.39
2023-02-21T23:23:26.698Z,6.37
2023-02-21T23:26:01.430Z,6.12
2023-02-21T23:28:31.812Z,6.08
2023-02-21T23:30:58.804Z,6.04
2023-02-21T23:33:28.570Z,6.02
2023-02-21T23:35:57.758Z,6.08
2023-02-21T23:38:28.401Z,6.08
2023-02-21T23:40:58.270Z,6.08
2023-02-21T23:43:29.790Z,6.01
2023-02-21T23:45:59.076Z,6.02
2023-02-21T23:48:26.971Z,5.97
2023-02-21T23:50:58.172Z,5.99
2023-02-21T23:53:28.615Z,5.98
2023-02-21T23:55:57.953Z,5.88
2023-02-21T23:58:28.075Z,5.82
